Time;durP1;ratioP1;P1;durP2;ratioP2;P2;SDS_P1;SDS_P2;PMS_P1;PMS_P2;Temp;Humidity;BMP_temperature;BMP_pressure;BME280_temperature;BME280_humidity;BME280_pressure;Samples;Min_cycle;Max_cycle;Signal;HPM_P1;HPM_P2
2021/01/18 00:02:04;;;;;;;29.05;11.80;;;;;;;7.07;70.19;100904.63;5014389;28;20056;-63
2021/01/18 00:04:31;;;;;;;24.83;10.93;;;;;;;7.07;70.73;100899.09;5014820;28;20081;-62
2021/01/18 00:06:58;;;;;;;27.38;10.85;;;;;;;7.02;70.90;100901.91;5014639;28;20054;-62
2021/01/18 00:09:25;;;;;;;24.73;11.20;;;;;;;7.04;70.40;100902.44;5014525;28;20411;-62
2021/01/18 00:11:52;;;;;;;31.40;12.18;;;;;;;7.02;70.65;100899.13;5014188;28;20050;-63
2021/01/18 00:14:19;;;;;;;30.25;12.90;;;;;;;7.01;70.56;100900.22;5013800;28;20061;-63
2021/01/18 00:16:46;;;;;;;30.20;12.27;;;;;;;7.03;71.07;100911.84;5014260;28;20065;-62
2021/01/18 00:19:13;;;;;;;30.15;11.95;;;;;;;7.03;71.00;100904.34;5014244;28;20057;-61
2021/01/18 00:21:45;;;;;;;31.02;13.82;;;;;;;7.05;70.95;100912.41;5013931;28;20050;-62
2021/01/18 00:24:13;;;;;;;29.50;13.93;;;;;;;7.05;71.26;100906.84;5013426;28;20046;-62
2021/01/18 00:26:40;;;;;;;31.13;14.80;;;;;;;7.06;70.68;100903.81;5014387;28;20054;-62
2021/01/18 00:29:07;;;;;;;32.67;14.43;;;;;;;7.08;70.71;100906.31;5013721;28;20050;-62
2021/01/18 00:31:34;;;;;;;29.88;13.77;;;;;;;7.06;71.07;100903.00;5013885;28;20046;-61
2021/01/18 00:34:01;;;;;;;33.35;14.20;;;;;;;7.03;71.05;100903.53;5014040;28;20057;-64
2021/01/18 00:36:28;;;;;;;35.20;15.73;;;;;;;7.02;70.86;100908.25;5013835;28;20058;-62
2021/01/18 00:38:54;;;;;;;29.33;13.23;;;;;;;6.99;70.66;100916.28;5013888;28;20414;-62
2021/01/18 00:41:22;;;;;;;37.00;15.07;;;;;;;6.87;72.01;100906.34;5014116;28;20049;-62
2021/01/18 00:43:49;;;;;;;29.27;13.55;;;;;;;6.92;71.58;100902.72;5014204;28;20054;-63
2021/01/18 00:46:17;;;;;;;30.85;13.05;;;;;;;6.97;71.36;100904.66;5013604;28;20046;-62
2021/01/18 00:48:44;;;;;;;26.90;12.85;;;;;;;6.96;71.27;100900.25;5013583;28;20052;-63
2021/01/18 00:51:11;;;;;;;35.17;14.90;;;;;;;7.01;72.05;100905.75;5012900;28;20046;-62
2021/01/18 00:53:38;;;;;;;30.52;14.27;;;;;;;7.02;71.78;100896.34;5013636;28;20065;-62
2021/01/18 00:56:05;;;;;;;27.83;12.50;;;;;;;7.02;71.94;100891.63;5013880;28;20073;-62
2021/01/18 00:58:35;;;;;;;27.55;13.05;;;;;;;7.05;71.71;100904.09;5013547;28;20057;-63
2021/01/18 01:01:02;;;;;;;;;;;;;;;7.06;71.61;100891.91;5013500;28;20057;-63
2021/01/18 01:03:29;;;;;;;32.97;14.07;;;;;;;7.04;71.52;100894.13;5013719;28;19922;-61
2021/01/18 01:05:58;;;;;;;34.65;15.63;;;;;;;7.01;71.52;100898.28;4999532;28;20061;-62
2021/01/18 01:08:25;;;;;;;43.10;17.48;;;;;;;7.02;71.35;100899.13;4993431;28;20050;-62
2021/01/18 01:10:52;;;;;;;40.33;18.20;;;;;;;7.01;71.62;100905.75;4993599;28;20050;-62
2021/01/18 01:13:18;;;;;;;33.45;17.55;;;;;;;7.04;72.05;100899.66;4993883;28;20054;-62
2021/01/18 01:15:46;;;;;;;40.72;20.30;;;;;;;7.04;71.79;100891.38;4993519;28;20057;-61
2021/01/18 01:18:13;;;;;;;40.35;20.00;;;;;;;7.04;71.78;100888.59;4993331;28;20067;-62
2021/01/18 01:20:40;;;;;;;44.13;20.85;;;;;;;7.01;72.41;100894.69;4996358;28;20061;-62
2021/01/18 01:23:07;;;;;;;43.67;21.23;;;;;;;7.05;71.86;100901.31;5013755;28;20061;-62
2021/01/18 01:25:34;;;;;;;41.45;19.13;;;;;;;7.05;71.46;100906.84;4996471;28;20453;-62
2021/01/18 01:28:01;;;;;;;23.63;11.98;;;;;;;7.04;71.22;100899.66;4993307;28;20070;-63
2021/01/18 01:30:27;;;;;;;22.85;11.55;;;;;;;7.00;70.19;100899.41;4993301;28;20061;-64
2021/01/18 01:32:55;;;;;;;22.15;12.65;;;;;;;6.92;70.96;100902.72;4993686;28;20058;-62
2021/01/18 01:35:24;;;;;;;31.60;13.43;;;;;;;6.83;71.37;100902.47;4993524;28;20050;-62
2021/01/18 01:37:51;;;;;;;21.73;10.55;;;;;;;6.81;71.27;100906.63;4993074;28;20061;-62
2021/01/18 01:40:19;;;;;;;22.48;10.25;;;;;;;6.77;70.37;100900.81;4993461;28;20050;-63
2021/01/18 01:42:46;;;;;;;24.98;10.45;;;;;;;6.77;70.03;100900.00;4993269;28;20054;-63
2021/01/18 01:45:15;;;;;;;19.65;9.70;;;;;;;6.72;71.33;100892.53;4992795;28;20050;-63
2021/01/18 01:47:45;;;;;;;12.98;8.73;;;;;;;6.66;71.39;100899.16;4993287;28;20404;-62
2021/01/18 01:50:19;;;;;;;16.77;8.63;;;;;;;6.71;71.71;100893.63;4993413;28;20054;-61
2021/01/18 01:52:49;;;;;;;15.63;8.38;;;;;;;6.73;70.31;100891.41;4993529;28;20051;-63
2021/01/18 01:55:23;;;;;;;18.35;8.95;;;;;;;6.73;69.94;100891.41;4992952;28;20165;-62
2021/01/18 01:57:51;;;;;;;14.35;8.30;;;;;;;6.69;70.74;100893.06;4994782;28;20069;-63
2021/01/18 02:00:20;;;;;;;15.80;8.52;;;;;;;6.69;70.95;100898.59;5005541;28;20058;-63
2021/01/18 02:02:47;;;;;;;19.52;9.25;;;;;;;6.69;70.73;100893.88;5012764;28;20077;-63
2021/01/18 02:05:15;;;;;;;18.75;9.65;;;;;;;6.71;70.84;100896.38;5012647;28;20049;-63
2021/01/18 02:07:42;;;;;;;17.80;7.60;;;;;;;6.68;70.99;100896.97;5012146;28;20061;-63
2021/01/18 02:10:11;;;;;;;15.60;7.38;;;;;;;6.68;70.51;100891.41;5012684;28;20050;-62
2021/01/18 02:12:39;;;;;;;14.30;7.15;;;;;;;6.70;70.94;100905.81;5012608;28;20419;-63
2021/01/18 02:15:18;;;;;;;12.35;7.00;;;;;;;6.67;70.66;100900.81;5012564;28;20506;-63
2021/01/18 02:17:58;;;;;;;16.20;7.25;;;;;;;6.70;70.05;100900.28;5012709;28;20050;-63
2021/01/18 02:21:02;;;;;;;12.27;7.10;;;;;;;6.68;69.89;100902.50;5012312;28;20057;-63
2021/01/18 02:24:13;;;;;;;18.48;7.75;;;;;;;6.62;69.98;100907.19;5011848;28;20375;-62
2021/01/18 02:26:55;;;;;;;18.10;8.38;;;;;;;6.49;70.53;100900.28;5012553;28;20050;-63
2021/01/18 02:29:37;;;;;;;17.17;8.88;;;;;;;6.48;71.12;100901.38;5012037;28;20057;-63
2021/01/18 02:32:40;;;;;;;18.58;8.65;;;;;;;6.46;70.65;100892.50;5012684;28;20479;-63
2021/01/18 02:35:16;;;;;;;17.65;9.48;;;;;;;6.40;70.70;100892.78;5012698;28;20065;-62
2021/01/18 02:38:09;;;;;;;19.85;10.77;;;;;;;6.39;71.07;100891.16;5012496;28;20069;-63
2021/01/18 02:40:46;;;;;;;22.45;10.82;;;;;;;6.28;71.32;100896.66;5011746;28;20068;-63
2021/01/18 02:43:16;;;;;;;16.85;9.95;;;;;;;6.27;71.66;100888.63;5012385;28;20061;-63
2021/01/18 02:45:44;;;;;;;20.48;12.85;;;;;;;6.26;72.21;100882.28;5012324;28;20065;-62
2021/01/18 02:48:11;;;;;;;19.88;12.00;;;;;;;6.27;71.77;100883.09;5012389;28;20072;-62
2021/01/18 02:50:39;;;;;;;23.33;12.77;;;;;;;6.23;72.36;100882.81;5010417;28;20471;-63
2021/01/18 02:53:07;;;;;;;22.95;13.57;;;;;;;6.21;72.40;100886.97;5015739;28;20050;-61
2021/01/18 02:55:34;;;;;;;23.80;13.32;;;;;;;6.20;72.69;100891.69;5015667;28;20064;-63
2021/01/18 02:58:03;;;;;;;21.42;11.32;;;;;;;6.14;72.94;100891.94;5015849;28;20050;-63
2021/01/18 03:00:33;;;;;;;24.60;13.73;;;;;;;6.16;73.39;100884.22;5015850;28;20073;-63
2021/01/18 03:03:09;;;;;;;20.38;11.38;;;;;;;6.14;73.52;100897.47;5015724;28;20050;-63
2021/01/18 03:05:43;;;;;;;20.27;11.07;;;;;;;6.17;73.18;100903.28;5016081;28;20061;-63
2021/01/18 03:08:20;;;;;;;17.40;10.73;;;;;;;6.18;72.84;100898.59;5016018;28;20041;-63
2021/01/18 03:10:54;;;;;;;16.50;9.57;;;;;;;6.24;72.36;100901.09;5015014;28;20053;-62
2021/01/18 03:13:26;;;;;;;20.73;10.30;;;;;;;6.26;72.61;100906.34;5015331;28;20057;-63
2021/01/18 03:15:59;;;;;;;17.20;9.52;;;;;;;6.30;72.04;100905.53;5015436;28;20349;-63
2021/01/18 03:18:28;;;;;;;16.17;9.45;;;;;;;6.32;72.05;100896.97;5015517;28;20491;-63
2021/01/18 03:20:56;;;;;;;23.42;11.52;;;;;;;6.36;72.23;100900.81;5015240;28;20474;-63
2021/01/18 03:23:24;;;;;;;16.88;10.02;;;;;;;6.36;72.18;100894.44;5015132;28;20505;-63
2021/01/18 03:25:53;;;;;;;19.45;10.82;;;;;;;6.34;72.20;100891.97;5015292;28;20065;-63
2021/01/18 03:28:21;;;;;;;16.42;9.50;;;;;;;6.36;71.66;100898.03;5015521;28;20057;-63
2021/01/18 03:30:48;;;;;;;21.42;10.43;;;;;;;6.33;72.29;100906.91;5015354;28;20058;-63
2021/01/18 03:33:16;;;;;;;26.42;10.98;;;;;;;6.29;71.97;100905.78;5015365;28;20384;-63
2021/01/18 03:35:43;;;;;;;22.92;9.85;;;;;;;6.28;71.39;100901.38;5015364;28;20057;-63
2021/01/18 03:38:10;;;;;;;20.88;10.45;;;;;;;6.23;71.85;100906.88;5014405;28;20054;-63
2021/01/18 03:40:38;;;;;;;23.70;10.63;;;;;;;6.22;72.31;100908.00;5015341;28;20060;-63
2021/01/18 03:43:08;;;;;;;18.63;10.02;;;;;;;6.16;71.91;100907.16;5015061;28;20050;-63
2021/01/18 03:45:36;;;;;;;19.02;9.02;;;;;;;6.19;71.54;100903.00;5014799;28;20054;-63
2021/01/18 03:48:04;;;;;;;19.15;10.18;;;;;;;6.09;71.65;100912.97;5014624;28;20072;-63
2021/01/18 03:50:31;;;;;;;18.88;10.60;;;;;;;6.10;71.62;100913.78;5014615;28;20053;-64
2021/01/18 03:52:58;;;;;;;21.30;10.85;;;;;;;6.07;71.95;100908.81;5015388;28;20483;-63
2021/01/18 03:55:25;;;;;;;18.23;10.48;;;;;;;5.99;71.59;100918.47;5014819;28;20050;-63
2021/01/18 03:57:55;;;;;;;21.90;9.30;;;;;;;5.95;71.99;100911.81;5015673;28;20067;-63
2021/01/18 04:00:23;;;;;;;16.00;6.95;;;;;;;5.92;71.72;100912.31;5014601;28;20525;-63
2021/01/18 04:02:51;;;;;;;28.75;13.35;;;;;;;5.94;72.16;100909.28;5014655;28;20392;-63
2021/01/18 04:05:19;;;;;;;22.63;11.77;;;;;;;5.89;71.97;100904.59;5014166;28;20057;-63
2021/01/18 04:07:47;;;;;;;25.65;14.30;;;;;;;5.84;72.15;100910.94;5014305;28;20053;-63
2021/01/18 04:10:16;;;;;;;24.95;13.88;;;;;;;5.79;72.92;100899.84;5014562;28;20407;-63
2021/01/18 04:12:45;;;;;;;30.55;14.90;;;;;;;5.77;73.17;100904.81;5014562;28;20054;-63
2021/01/18 04:15:14;;;;;;;35.67;18.95;;;;;;;5.77;73.12;100899.28;5014305;28;20064;-63
2021/01/18 04:17:42;;;;;;;36.55;17.15;;;;;;;5.84;72.90;100904.59;5014647;28;20057;-63
2021/01/18 04:20:10;;;;;;;33.05;15.73;;;;;;;5.87;72.29;100909.56;5014261;28;20064;-63
2021/01/18 04:22:43;;;;;;;36.00;18.17;;;;;;;5.83;72.49;100898.19;5014625;28;20437;-63
2021/01/18 04:25:11;;;;;;;32.38;16.83;;;;;;;5.85;72.74;100904.28;5013897;28;20081;-63
2021/01/18 04:27:38;;;;;;;31.88;16.60;;;;;;;5.81;72.47;100905.13;5014282;28;20049;-63
2021/01/18 04:30:07;;;;;;;34.17;18.88;;;;;;;5.78;72.70;100900.13;5014143;28;20076;-63
2021/01/18 04:32:37;;;;;;;33.13;17.77;;;;;;;5.76;72.74;100900.41;5014090;28;20053;-63
2021/01/18 04:35:05;;;;;;;36.13;18.80;;;;;;;5.74;72.85;100896.25;5013949;28;20509;-63
2021/01/18 04:37:32;;;;;;;33.88;17.42;;;;;;;5.65;73.12;100896.78;5013972;28;20058;-63
2021/01/18 04:40:02;;;;;;;36.55;18.50;;;;;;;5.61;73.19;100903.94;5013485;28;20080;-63
2021/01/18 04:42:29;;;;;;;34.33;18.73;;;;;;;5.61;73.37;100897.59;5014018;28;20483;-63
2021/01/18 04:44:57;;;;;;;32.97;19.73;;;;;;;5.60;73.04;100899.50;5014127;28;20491;-63
2021/01/18 04:47:27;;;;;;;29.55;17.92;;;;;;;5.57;72.84;100902.00;5013965;28;20066;-63
2021/01/18 04:49:55;;;;;;;;;;;;;;;5.59;72.24;100897.03;5014286;28;20061;-63
2021/01/18 04:52:37;;;;;;;21.50;13.18;;;;;;;5.57;72.65;100900.06;4994167;28;19929;-63
2021/01/18 04:55:15;;;;;;;26.38;14.30;;;;;;;5.58;72.47;100892.59;4994066;28;20058;-63
2021/01/18 04:57:53;;;;;;;28.20;14.75;;;;;;;5.63;72.40;100898.16;4994279;28;20054;-63
2021/01/18 05:00:29;;;;;;;24.20;13.80;;;;;;;5.66;72.38;100903.94;4993658;28;20073;-63
2021/01/18 05:03:05;;;;;;;28.25;14.30;;;;;;;5.74;72.13;100893.50;4993644;28;20050;-63
2021/01/18 05:05:47;;;;;;;22.98;14.43;;;;;;;5.77;71.65;100898.47;5002143;28;20057;-63
2021/01/18 05:08:33;;;;;;;27.73;14.73;;;;;;;5.82;71.75;100891.03;5013827;28;20060;-63
2021/01/18 05:11:01;;;;;;;27.80;14.27;;;;;;;5.85;71.75;100889.66;5013428;28;20053;-63
2021/01/18 05:13:30;;;;;;;26.88;16.92;;;;;;;5.92;71.92;100889.38;5013250;28;20093;-63
2021/01/18 05:15:59;;;;;;;27.42;16.55;;;;;;;5.95;71.72;100881.41;5012609;28;20065;-63
2021/01/18 05:18:32;;;;;;;28.08;16.70;;;;;;;6.00;71.23;100886.94;5012925;28;20053;-63
2021/01/18 05:21:01;;;;;;;27.38;16.55;;;;;;;6.05;71.17;100891.66;5013144;28;20414;-63
2021/01/18 05:23:28;;;;;;;33.50;18.75;;;;;;;6.05;71.57;100892.50;5012255;28;20050;-63
2021/01/18 05:26:25;;;;;;;31.05;17.23;;;;;;;6.10;71.50;100886.94;5011339;28;20517;-63
2021/01/18 05:28:54;;;;;;;32.67;18.33;;;;;;;6.15;70.86;100888.06;5012963;28;20054;-63
2021/01/18 05:31:38;;;;;;;35.20;19.35;;;;;;;6.16;71.34;100881.44;5013126;28;20403;-63
2021/01/18 05:34:06;;;;;;;32.50;19.55;;;;;;;6.18;71.03;100882.00;5013227;28;20068;-63
2021/01/18 05:36:39;;;;;;;34.72;20.77;;;;;;;6.23;71.65;100890.28;5013206;28;20049;-63
2021/01/18 05:39:17;;;;;;;32.25;20.75;;;;;;;6.28;71.00;100885.59;5012881;28;20046;-63
2021/01/18 05:41:46;;;;;;;37.28;20.35;;;;;;;6.30;71.02;100888.94;5012652;28;20479;-63
2021/01/18 05:44:13;;;;;;;33.53;19.80;;;;;;;6.29;70.90;100890.03;4993335;28;20054;-63
2021/01/18 05:46:42;;;;;;;36.95;21.25;;;;;;;6.28;70.91;100887.56;4993396;28;20058;-63
2021/01/18 05:49:12;;;;;;;35.83;21.63;;;;;;;6.28;71.35;100898.63;4993356;28;20157;-63
2021/01/18 05:51:40;;;;;;;35.58;21.25;;;;;;;6.26;71.15;100896.13;4993528;28;20057;-63
2021/01/18 05:54:11;;;;;;;40.80;22.15;;;;;;;6.30;71.63;100897.22;4993376;28;20057;-63
2021/01/18 05:56:44;;;;;;;39.28;21.70;;;;;;;6.29;71.57;100903.03;4995202;28;20057;-63
2021/01/18 05:59:19;;;;;;;33.95;18.90;;;;;;;6.35;71.21;100913.00;5012861;28;20065;-63
2021/01/18 06:01:48;;;;;;;39.28;20.45;;;;;;;6.34;71.19;100897.50;5012249;28;20054;-62
2021/01/18 06:04:16;;;;;;;39.10;22.13;;;;;;;6.38;70.99;100901.38;5012668;28;20053;-62
2021/01/18 06:06:52;;;;;;;36.78;21.48;;;;;;;6.41;71.18;100917.44;5012766;28;20060;-63
2021/01/18 06:09:19;;;;;;;31.35;19.95;;;;;;;6.43;71.00;100897.78;5011781;28;20049;-62
2021/01/18 06:11:46;;;;;;;32.38;19.25;;;;;;;6.43;70.77;100895.84;5009861;28;20072;-62
2021/01/18 06:14:13;;;;;;;31.33;19.70;;;;;;;6.36;71.18;100900.81;5012446;28;20050;-62
2021/01/18 06:16:40;;;;;;;35.88;20.33;;;;;;;6.32;70.92;100899.72;5012424;28;20062;-63
2021/01/18 06:19:08;;;;;;;39.00;21.35;;;;;;;6.34;71.11;100896.66;5012646;28;20042;-62
2021/01/18 06:21:40;;;;;;;32.50;21.42;;;;;;;6.37;71.15;100899.72;5011132;28;20410;-62
2021/01/18 06:24:19;;;;;;;36.08;21.20;;;;;;;6.43;70.82;100895.03;5010727;28;20049;-62
2021/01/18 06:26:46;;;;;;;34.30;20.27;;;;;;;6.45;71.34;100892.81;5010582;28;20474;-63
2021/01/18 06:29:36;;;;;;;32.08;17.77;;;;;;;6.43;70.56;100901.38;5015945;28;20057;-63
2021/01/18 06:32:05;;;;;;;37.45;21.00;;;;;;;6.41;71.29;100892.53;5014382;28;20053;-62
2021/01/18 06:34:32;;;;;;;35.15;21.70;;;;;;;6.41;71.18;100897.25;5016186;28;20069;-62
2021/01/18 06:37:00;;;;;;;33.78;20.70;;;;;;;6.43;71.29;100906.91;5016008;28;20418;-62
2021/01/18 06:39:31;;;;;;;33.67;21.10;;;;;;;6.42;71.24;100905.25;5015232;28;20054;-62
2021/01/18 06:42:01;;;;;;;35.28;19.92;;;;;;;6.36;71.40;100903.56;4996531;28;20172;-63
2021/01/18 06:44:40;;;;;;;35.90;19.52;;;;;;;6.34;71.50;100908.59;4996411;28;20407;-63
2021/01/18 06:47:29;;;;;;;44.65;21.08;;;;;;;6.38;71.39;100906.06;5004634;28;20053;-63
2021/01/18 06:49:59;;;;;;;32.45;20.67;;;;;;;6.38;71.06;100903.31;5021112;28;20049;-63
2021/01/18 06:52:29;;;;;;;38.72;21.40;;;;;;;6.37;71.61;100902.47;5012632;28;20391;-63
2021/01/18 06:55:01;;;;;;;35.15;19.70;;;;;;;6.38;71.08;100898.59;5011342;28;20050;-63
2021/01/18 06:57:52;;;;;;;35.55;21.20;;;;;;;6.40;71.24;100896.38;5014912;28;20049;-63
2021/01/18 07:00:19;;;;;;;36.25;20.55;;;;;;;6.42;71.42;100898.88;5011354;28;20066;-63
2021/01/18 07:02:55;;;;;;;39.08;20.27;;;;;;;6.41;71.25;100897.25;5011398;28;20049;-64
2021/01/18 07:05:35;;;;;;;29.98;18.70;;;;;;;6.44;71.07;100888.38;5009358;28;20057;-64
2021/01/18 07:08:21;;;;;;;35.85;19.45;;;;;;;6.42;71.29;100899.72;5007400;28;20065;-63
2021/01/18 07:10:50;;;;;;;32.63;18.98;;;;;;;6.40;71.16;100896.38;5007049;28;20418;-63
2021/01/18 07:13:19;;;;;;;33.90;19.02;;;;;;;6.44;71.44;100900.25;5010211;28;20541;-63
2021/01/18 07:15:47;;;;;;;37.63;19.58;;;;;;;6.44;71.05;100897.50;5012657;28;20459;-63
2021/01/18 07:18:15;;;;;;;35.65;19.35;;;;;;;6.48;70.97;100898.59;5015284;28;20072;-63
2021/01/18 07:20:43;;;;;;;39.22;19.42;;;;;;;6.52;71.10;100893.34;5000639;28;20066;-63
2021/01/18 07:23:26;;;;;;;29.88;17.52;;;;;;;6.51;70.54;100897.25;5002119;28;20514;-63
2021/01/18 07:26:05;;;;;;;30.25;14.13;;;;;;;6.52;70.88;100895.31;5009173;28;20046;-63
2021/01/18 07:28:33;;;;;;;25.77;17.10;;;;;;;6.50;70.38;100901.09;5012173;28;20057;-63
2021/01/18 07:31:01;;;;;;;28.67;16.98;;;;;;;6.49;71.14;100903.03;5011264;28;20419;-63
2021/01/18 07:33:28;;;;;;;34.13;17.85;;;;;;;6.46;70.93;100906.34;5010909;28;20061;-63
2021/01/18 07:35:55;;;;;;;26.08;15.05;;;;;;;6.49;70.23;100899.47;5012549;28;20058;-63
2021/01/18 07:38:24;;;;;;;27.13;16.63;;;;;;;6.48;70.67;100895.00;5010855;28;20054;-63
2021/01/18 07:41:13;;;;;;;28.73;16.23;;;;;;;6.52;70.40;100892.53;5011346;28;20064;-63
2021/01/18 07:43:42;;;;;;;33.83;16.17;;;;;;;6.51;70.50;100897.25;5011490;28;20049;-62
2021/01/18 07:46:37;;;;;;;27.67;15.70;;;;;;;6.54;70.57;100896.69;5012942;28;20430;-65
2021/01/18 07:49:42;;;;;;;24.17;13.68;;;;;;;6.53;70.53;100892.25;5009467;28;20061;-63
2021/01/18 07:52:29;;;;;;;24.88;13.90;;;;;;;6.46;70.36;100892.50;5011046;28;20517;-63
2021/01/18 07:54:59;;;;;;;31.33;16.05;;;;;;;6.42;70.54;100896.94;5006753;28;20591;-64
2021/01/18 07:57:35;;;;;;;27.08;15.48;;;;;;;6.45;70.61;100904.69;5009984;28;20057;-63
2021/01/18 08:00:25;;;;;;;26.58;14.65;;;;;;;6.43;70.62;100895.84;5011516;28;20462;-64
2021/01/18 08:02:53;;;;;;;24.77;12.95;;;;;;;6.43;69.98;100895.84;5013154;28;20086;-63
2021/01/18 08:05:25;;;;;;;26.50;15.27;;;;;;;6.45;70.88;100899.16;5007615;28;20057;-65
2021/01/18 08:08:03;;;;;;;28.80;15.85;;;;;;;6.52;71.17;100898.06;5010378;28;20053;-66
2021/01/18 08:11:04;;;;;;;23.30;13.10;;;;;;;6.51;69.91;100894.47;5009496;28;20057;-66
2021/01/18 08:13:47;;;;;;;21.88;12.77;;;;;;;6.50;70.30;100890.84;4911411;29;20104;-66
2021/01/18 08:16:19;;;;;;;22.25;14.00;;;;;;;6.46;70.21;100894.47;5001478;28;20084;-66
2021/01/18 08:19:06;;;;;;;26.13;13.77;;;;;;;6.49;70.49;100894.75;5007038;28;20061;-66
2021/01/18 08:22:04;;;;;;;26.60;14.80;;;;;;;6.53;70.34;100894.19;5002729;28;20052;-66
2021/01/18 08:25:04;;;;;;;20.80;13.10;;;;;;;6.55;70.21;100897.50;5008132;28;20054;-66
2021/01/18 08:27:35;;;;;;;25.75;13.35;;;;;;;6.52;70.41;100903.59;5010495;28;20053;-65
2021/01/18 08:30:20;;;;;;;22.90;13.65;;;;;;;6.50;70.12;100901.09;5009159;28;20503;-65
2021/01/18 08:32:55;;;;;;;23.50;14.55;;;;;;;6.53;70.17;100905.25;5005604;28;20058;-65
2021/01/18 08:35:25;;;;;;;20.13;12.20;;;;;;;6.50;69.40;100904.69;5010812;28;20053;-66
2021/01/18 08:37:54;;;;;;;28.38;14.25;;;;;;;6.47;69.83;100913.56;5007750;28;20080;-66
2021/01/18 08:40:21;;;;;;;21.73;11.98;;;;;;;6.43;70.11;100920.75;5007035;28;20510;-65
2021/01/18 08:42:55;;;;;;;21.70;11.77;;;;;;;6.41;69.93;100908.31;5012283;28;20054;-65
2021/01/18 08:45:25;;;;;;;22.40;11.52;;;;;;;6.40;69.45;100917.69;5010397;28;20521;-66
2021/01/18 08:47:54;;;;;;;21.48;12.40;;;;;;;6.32;69.37;100921.84;5011395;28;20060;-66
2021/01/18 08:50:23;;;;;;;26.17;12.52;;;;;;;6.28;70.18;100918.81;5010785;28;20418;-66
2021/01/18 08:52:51;;;;;;;27.85;12.90;;;;;;;6.39;70.09;100929.88;5008574;28;20385;-65
2021/01/18 08:55:52;;;;;;;25.60;12.48;;;;;;;6.41;69.83;100931.25;5011521;28;20064;-66
2021/01/18 08:58:42;;;;;;;26.75;12.55;;;;;;;6.45;69.92;100924.06;5008213;28;20065;-66
2021/01/18 09:01:12;;;;;;;19.25;10.23;;;;;;;6.57;69.01;100922.97;5010689;28;20049;-66
2021/01/18 09:03:41;;;;;;;19.85;7.85;;;;;;;6.65;68.73;100930.72;5010415;28;20054;-65
2021/01/18 09:06:10;;;;;;;21.70;11.70;;;;;;;6.62;69.31;100922.97;5012053;28;20058;-65
2021/01/18 09:08:40;;;;;;;30.63;12.77;;;;;;;6.65;69.25;100914.94;5015823;28;20065;-65
2021/01/18 09:11:08;;;;;;;;;;;;;;;6.58;69.60;100916.34;5012759;28;20053;-65
2021/01/18 09:13:39;;;;;;;23.95;12.00;;;;;;;6.56;70.00;100916.59;5010781;28;20290;-65
2021/01/18 09:16:07;;;;;;;24.95;12.98;;;;;;;6.57;69.90;100920.19;5020832;28;20197;-65
2021/01/18 09:18:36;;;;;;;26.50;12.90;;;;;;;6.64;69.70;100927.13;5003298;28;20046;-65
2021/01/18 09:21:07;;;;;;;27.60;13.50;;;;;;;6.75;69.78;100932.66;5010979;28;20049;-66
2021/01/18 09:23:34;;;;;;;25.52;13.50;;;;;;;6.72;68.87;100922.97;5010603;28;20058;-65
2021/01/18 09:26:07;;;;;;;27.02;13.77;;;;;;;6.77;69.33;100917.44;5010823;28;20102;-66
2021/01/18 09:28:35;;;;;;;26.05;12.48;;;;;;;6.77;69.15;100917.44;5010202;28;20069;-65
2021/01/18 09:31:12;;;;;;;24.55;13.25;;;;;;;6.80;68.74;100922.38;5009979;28;20057;-65
2021/01/18 09:33:42;;;;;;;25.92;13.07;;;;;;;6.77;69.08;100920.19;5010063;28;20641;-65
2021/01/18 09:36:13;;;;;;;24.85;12.70;;;;;;;6.80;69.17;100933.47;5008750;28;20054;-65
2021/01/18 09:38:41;;;;;;;28.42;11.93;;;;;;;6.76;68.99;100926.00;5018774;28;20057;-66
2021/01/18 09:41:08;;;;;;;21.83;11.63;;;;;;;6.71;69.65;100921.31;5009840;28;20065;-65
2021/01/18 09:43:36;;;;;;;30.90;13.18;;;;;;;6.73;69.77;100927.41;5010959;28;20057;-66
2021/01/18 09:46:03;;;;;;;24.08;12.55;;;;;;;6.87;68.61;100922.97;5009513;28;20057;-65
2021/01/18 09:48:30;;;;;;;22.42;11.32;;;;;;;6.95;68.94;100917.94;5009688;28;20060;-65
2021/01/18 09:51:00;;;;;;;23.58;12.35;;;;;;;7.08;68.38;100914.63;5010110;28;20049;-65
2021/01/18 09:53:27;;;;;;;22.70;12.30;;;;;;;7.21;67.79;100910.44;5009891;28;20066;-65
2021/01/18 09:55:59;;;;;;;27.45;11.48;;;;;;;7.18;68.11;100906.28;5011265;28;20053;-66
2021/01/18 09:58:35;;;;;;;27.48;12.02;;;;;;;7.22;67.64;100906.53;5010159;28;20065;-66
2021/01/18 10:01:07;;;;;;;20.63;10.43;;;;;;;7.16;67.89;100908.50;5009582;28;20061;-65
2021/01/18 10:03:36;;;;;;;26.65;11.52;;;;;;;7.15;67.95;100915.16;5008934;28;20061;-66
2021/01/18 10:06:07;;;;;;;26.92;11.20;;;;;;;7.16;67.11;100908.50;5009867;28;20395;-66
2021/01/18 10:08:35;;;;;;;23.80;11.05;;;;;;;7.16;68.14;100902.97;5009677;28;20509;-66
2021/01/18 10:11:03;;;;;;;19.80;10.70;;;;;;;7.09;68.11;100907.97;5010171;28;20517;-66
2021/01/18 10:13:32;;;;;;;18.05;10.05;;;;;;;7.12;68.08;100915.72;4990951;28;20062;-66
2021/01/18 10:16:14;;;;;;;18.98;9.65;;;;;;;7.20;67.87;100900.44;4999381;28;20049;-66
2021/01/18 10:18:44;;;;;;;20.63;10.13;;;;;;;7.29;67.75;100893.22;5002531;28;20061;-66
2021/01/18 10:21:14;;;;;;;20.52;10.68;;;;;;;7.35;67.29;100894.88;5008848;28;20062;-66
2021/01/18 10:23:45;;;;;;;;;;;;;;;7.46;66.89;100892.91;5010431;28;20046;-66
2021/01/18 10:26:20;;;;;;;19.85;9.77;;;;;;;7.52;65.98;100891.78;5011320;28;19940;-65
2021/01/18 10:28:54;;;;;;;27.55;11.45;;;;;;;7.46;67.11;100892.91;5010030;28;20050;-65
2021/01/18 10:31:23;;;;;;;20.38;10.35;;;;;;;7.43;66.68;100885.13;5007553;28;20058;-65
2021/01/18 10:34:09;;;;;;;22.45;11.32;;;;;;;7.32;67.32;100889.88;5009702;28;20053;-65
2021/01/18 10:36:37;;;;;;;19.95;10.73;;;;;;;7.27;67.55;100870.53;5012348;28;20054;-65
2021/01/18 10:39:04;;;;;;;23.70;11.80;;;;;;;7.41;66.81;100874.34;5019708;28;20060;-65
2021/01/18 10:41:32;;;;;;;25.83;11.50;;;;;;;7.56;66.26;100873.47;5015640;28;20077;-65
2021/01/18 10:44:05;;;;;;;23.02;11.88;;;;;;;7.71;65.44;100870.59;5010362;28;20061;-66
2021/01/18 10:46:32;;;;;;;25.42;12.10;;;;;;;8.04;65.04;100868.19;5011057;28;20068;-65
2021/01/18 10:49:00;;;;;;;23.17;10.60;;;;;;;8.22;63.26;100871.38;5008546;28;20526;-66
2021/01/18 10:51:27;;;;;;;20.17;8.80;;;;;;;8.29;62.49;100858.00;5008663;28;20471;-65
2021/01/18 10:54:01;;;;;;;22.90;9.80;;;;;;;8.17;63.42;100860.31;5010420;28;20050;-65
2021/01/18 10:56:32;;;;;;;21.95;11.27;;;;;;;7.96;63.97;100857.69;5011048;28;20062;-65
2021/01/18 10:59:00;;;;;;;21.35;10.80;;;;;;;7.98;64.01;100858.25;5010405;28;20053;-65
2021/01/18 11:01:28;;;;;;;21.17;10.23;;;;;;;7.84;64.14;100851.69;5009142;28;20726;-65
2021/01/18 11:04:04;;;;;;;16.67;8.38;;;;;;;7.78;64.92;100850.03;5008060;28;20046;-65
2021/01/18 11:06:34;;;;;;;16.70;7.65;;;;;;;7.76;64.01;100849.50;5008323;28;20058;-66
2021/01/18 11:09:03;;;;;;;26.55;11.10;;;;;;;7.87;64.42;100851.09;5009753;28;20414;-66
2021/01/18 11:11:30;;;;;;;21.47;10.70;;;;;;;7.93;63.86;100850.75;5010567;28;20058;-66
2021/01/18 11:14:01;;;;;;;19.23;9.27;;;;;;;7.95;64.11;100841.34;5010945;28;20076;-66
2021/01/18 11:16:29;;;;;;;17.00;8.30;;;;;;;8.08;63.86;100847.09;5013744;28;20081;-66
2021/01/18 11:19:00;;;;;;;18.17;9.10;;;;;;;8.16;62.96;100837.28;5011451;28;20400;-66
2021/01/18 11:21:27;;;;;;;17.92;8.82;;;;;;;8.12;62.93;100831.47;5008711;28;20068;-66
2021/01/18 11:23:54;;;;;;;18.35;7.85;;;;;;;8.18;62.23;100823.97;5006953;28;20053;-65
2021/01/18 11:26:25;;;;;;;14.30;7.15;;;;;;;8.29;62.22;100822.78;5001072;28;20054;-65
2021/01/18 11:28:53;;;;;;;17.17;8.15;;;;;;;8.26;62.15;100822.53;5014470;28;20057;-65
2021/01/18 11:31:20;;;;;;;17.50;8.38;;;;;;;8.36;61.77;100805.78;5014231;28;20054;-65
2021/01/18 11:33:46;;;;;;;17.73;8.70;;;;;;;8.58;61.65;100812.81;5012774;28;20061;-65
2021/01/18 11:36:13;;;;;;;17.23;8.45;;;;;;;9.01;60.36;100791.53;5012749;28;20396;-65
2021/01/18 11:38:40;;;;;;;16.48;7.68;;;;;;;9.72;57.15;100795.31;5012315;28;20050;-65
2021/01/18 11:41:07;;;;;;;15.38;7.95;;;;;;;10.28;55.75;100793.56;5013705;28;20057;-65